sensor_id;sensor_type;location;lat;lon;timestamp;P1;durP1;ratioP1;P2;durP2;ratioP2
81006;SDS011;70472;47.592;17.640;2023-10-08T00:00:16;5.83;;;5.83;;
81006;SDS011;70472;47.592;17.640;2023-10-08T00:00:48;5.57;;;5.57;;
81006;SDS011;70472;47.592;17.640;2023-10-08T00:01:21;5.70;;;5.70;;
81006;SDS011;70472;47.592;17.640;2023-10-08T00:01:54;6.33;;;6.33;;
81006;SDS011;70472;47.592;17.640;2023-10-08T00:02:26;5.77;;;5.77;;
81006;SDS011;70472;47.592;17.640;2023-10-08T00:02:59;5.77;;;5.77;;
81006;SDS011;70472;47.592;17.640;2023-10-08T00:03:31;6.47;;;6.47;;
81006;SDS011;70472;47.592;17.640;2023-10-08T00:04:04;6.40;;;6.40;;
81006;SDS011;70472;47.592;17.640;2023-10-08T00:04:37;5.93;;;5.93;;
81006;SDS011;70472;47.592;17.640;2023-10-08T00:05:09;6.50;;;6.50;;
81006;SDS011;70472;47.592;17.640;2023-10-08T00:05:42;7.17;;;7.17;;
81006;SDS011;70472;47.592;17.640;2023-10-08T00:06:15;6.73;;;6.73;;
81006;SDS011;70472;47.592;17.640;2023-10-08T00:06:48;7.03;;;7.03;;
81006;SDS011;70472;47.592;17.640;2023-10-08T00:07:21;7.73;;;7.73;;
81006;SDS011;70472;47.592;17.640;2023-10-08T00:07:54;7.07;;;7.07;;
81006;SDS011;70472;47.592;17.640;2023-10-08T00:08:26;5.70;;;5.70;;
81006;SDS011;70472;47.592;17.640;2023-10-08T00:08:59;7.10;;;7.10;;
81006;SDS011;70472;47.592;17.640;2023-10-08T00:09:32;6.60;;;6.60;;
81006;SDS011;70472;47.592;17.640;2023-10-08T00:10:06;7.23;;;7.23;;
81006;SDS011;70472;47.592;17.640;2023-10-08T00:10:40;6.13;;;6.13;;
81006;SDS011;70472;47.592;17.640;2023-10-08T00:11:13;6.10;;;6.10;;
81006;SDS011;70472;47.592;17.640;2023-10-08T00:11:46;6.33;;;6.33;;
81006;SDS011;70472;47.592;17.640;2023-10-08T00:12:19;6.70;;;6.70;;
81006;SDS011;70472;47.592;17.640;2023-10-08T00:12:52;6.33;;;6.33;;
81006;SDS011;70472;47.592;17.640;2023-10-08T00:13:24;6.93;;;6.93;;
81006;SDS011;70472;47.592;17.640;2023-10-08T00:13:57;6.93;;;6.93;;
81006;SDS011;70472;47.592;17.640;2023-10-08T00:14:29;6.90;;;6.90;;
81006;SDS011;70472;47.592;17.640;2023-10-08T00:15:03;6.67;;;6.67;;
81006;SDS011;70472;47.592;17.640;2023-10-08T00:15:36;6.93;;;6.93;;
81006;SDS011;70472;47.592;17.640;2023-10-08T00:16:12;7.30;;;7.30;;
81006;SDS011;70472;47.592;17.640;2023-10-08T00:16:46;6.77;;;6.77;;
81006;SDS011;70472;47.592;17.640;2023-10-08T00:17:18;6.70;;;6.70;;
81006;SDS011;70472;47.592;17.640;2023-10-08T00:17:51;6.73;;;6.73;;
81006;SDS011;70472;47.592;17.640;2023-10-08T00:18:23;6.93;;;6.93;;
81006;SDS011;70472;47.592;17.640;2023-10-08T00:18:56;6.67;;;6.67;;
81006;SDS011;70472;47.592;17.640;2023-10-08T00:19:28;7.20;;;7.20;;
81006;SDS011;70472;47.592;17.640;2023-10-08T00:20:01;6.80;;;6.80;;
81006;SDS011;70472;47.592;17.640;2023-10-08T00:20:36;6.80;;;6.80;;
81006;SDS011;70472;47.592;17.640;2023-10-08T00:21:09;6.97;;;6.97;;
81006;SDS011;70472;47.592;17.640;2023-10-08T00:21:42;7.07;;;7.07;;
81006;SDS011;70472;47.592;17.640;2023-10-08T00:22:14;7.07;;;7.07;;
81006;SDS011;70472;47.592;17.640;2023-10-08T00:22:47;7.10;;;7.10;;
81006;SDS011;70472;47.592;17.640;2023-10-08T00:23:19;7.43;;;7.43;;
81006;SDS011;70472;47.592;17.640;2023-10-08T00:23:53;7.73;;;7.73;;
81006;SDS011;70472;47.592;17.640;2023-10-08T00:24:27;7.10;;;7.10;;
81006;SDS011;70472;47.592;17.640;2023-10-08T00:24:59;7.47;;;7.47;;
81006;SDS011;70472;47.592;17.640;2023-10-08T00:25:32;7.37;;;7.37;;
81006;SDS011;70472;47.592;17.640;2023-10-08T00:26:05;7.37;;;7.37;;
81006;SDS011;70472;47.592;17.640;2023-10-08T00:26:37;7.30;;;7.30;;
81006;SDS011;70472;47.592;17.640;2023-10-08T00:27:10;7.50;;;7.50;;
81006;SDS011;70472;47.592;17.640;2023-10-08T00:27:42;7.17;;;7.17;;
81006;SDS011;70472;47.592;17.640;2023-10-08T00:28:15;6.97;;;6.97;;
81006;SDS011;70472;47.592;17.640;2023-10-08T00:28:47;7.03;;;7.03;;
81006;SDS011;70472;47.592;17.640;2023-10-08T00:29:20;7.33;;;7.33;;
81006;SDS011;70472;47.592;17.640;2023-10-08T00:29:52;7.40;;;7.40;;
81006;SDS011;70472;47.592;17.640;2023-10-08T00:30:25;7.50;;;7.50;;
81006;SDS011;70472;47.592;17.640;2023-10-08T00:30:58;7.43;;;7.43;;
81006;SDS011;70472;47.592;17.640;2023-10-08T00:31:30;7.73;;;7.73;;
81006;SDS011;70472;47.592;17.640;2023-10-08T00:32:03;7.57;;;7.57;;
81006;SDS011;70472;47.592;17.640;2023-10-08T00:32:38;7.20;;;7.20;;
81006;SDS011;70472;47.592;17.640;2023-10-08T00:33:10;6.97;;;6.97;;
81006;SDS011;70472;47.592;17.640;2023-10-08T00:33:43;6.87;;;6.87;;
81006;SDS011;70472;47.592;17.640;2023-10-08T00:34:16;7.23;;;7.23;;
81006;SDS011;70472;47.592;17.640;2023-10-08T00:34:50;8.03;;;8.03;;
81006;SDS011;70472;47.592;17.640;2023-10-08T00:35:23;7.10;;;7.10;;
81006;SDS011;70472;47.592;17.640;2023-10-08T00:35:55;6.63;;;6.63;;
81006;SDS011;70472;47.592;17.640;2023-10-08T00:36:28;6.87;;;6.87;;
81006;SDS011;70472;47.592;17.640;2023-10-08T00:37:00;6.97;;;6.97;;
81006;SDS011;70472;47.592;17.640;2023-10-08T00:37:33;7.00;;;7.00;;
81006;SDS011;70472;47.592;17.640;2023-10-08T00:38:05;6.53;;;6.53;;
81006;SDS011;70472;47.592;17.640;2023-10-08T00:38:37;7.20;;;7.20;;
81006;SDS011;70472;47.592;17.640;2023-10-08T00:39:10;6.70;;;6.70;;
81006;SDS011;70472;47.592;17.640;2023-10-08T00:39:43;6.73;;;6.73;;
81006;SDS011;70472;47.592;17.640;2023-10-08T00:40:16;7.03;;;7.03;;
81006;SDS011;70472;47.592;17.640;2023-10-08T00:40:48;6.50;;;6.50;;
81006;SDS011;70472;47.592;17.640;2023-10-08T00:41:21;6.53;;;6.53;;
81006;SDS011;70472;47.592;17.640;2023-10-08T00:41:53;6.93;;;6.93;;
81006;SDS011;70472;47.592;17.640;2023-10-08T00:42:26;6.53;;;6.53;;
81006;SDS011;70472;47.592;17.640;2023-10-08T00:42:58;6.70;;;6.70;;
81006;SDS011;70472;47.592;17.640;2023-10-08T00:44:07;6.80;;;6.80;;
81006;SDS011;70472;47.592;17.640;2023-10-08T00:44:40;7.07;;;7.07;;
81006;SDS011;70472;47.592;17.640;2023-10-08T00:45:13;6.53;;;6.53;;
81006;SDS011;70472;47.592;17.640;2023-10-08T00:45:46;5.73;;;5.73;;
81006;SDS011;70472;47.592;17.640;2023-10-08T00:46:18;6.37;;;6.37;;
81006;SDS011;70472;47.592;17.640;2023-10-08T00:46:51;6.33;;;6.33;;
81006;SDS011;70472;47.592;17.640;2023-10-08T00:47:24;7.17;;;7.17;;
81006;SDS011;70472;47.592;17.640;2023-10-08T00:47:56;7.13;;;7.13;;
81006;SDS011;70472;47.592;17.640;2023-10-08T00:48:29;6.90;;;6.90;;
81006;SDS011;70472;47.592;17.640;2023-10-08T00:49:05;6.37;;;6.37;;
81006;SDS011;70472;47.592;17.640;2023-10-08T00:49:37;6.67;;;6.67;;
81006;SDS011;70472;47.592;17.640;2023-10-08T00:50:10;6.70;;;6.70;;
81006;SDS011;70472;47.592;17.640;2023-10-08T00:50:43;5.97;;;5.97;;
81006;SDS011;70472;47.592;17.640;2023-10-08T00:51:18;6.17;;;6.17;;
81006;SDS011;70472;47.592;17.640;2023-10-08T00:51:52;5.73;;;5.73;;
81006;SDS011;70472;47.592;17.640;2023-10-08T00:52:28;5.93;;;5.93;;
81006;SDS011;70472;47.592;17.640;2023-10-08T00:53:02;5.97;;;5.97;;
81006;SDS011;70472;47.592;17.640;2023-10-08T00:53:35;5.97;;;5.97;;
81006;SDS011;70472;47.592;17.640;2023-10-08T00:54:08;6.63;;;6.63;;
81006;SDS011;70472;47.592;17.640;2023-10-08T00:54:42;6.50;;;6.50;;
81006;SDS011;70472;47.592;17.640;2023-10-08T00:55:15;6.13;;;6.13;;
81006;SDS011;70472;47.592;17.640;2023-10-08T00:55:48;5.47;;;5.47;;
81006;SDS011;70472;47.592;17.640;2023-10-08T00:56:21;6.23;;;6.23;;
81006;SDS011;70472;47.592;17.640;2023-10-08T00:56:53;6.97;;;6.97;;
81006;SDS011;70472;47.592;17.640;2023-10-08T00:57:27;6.53;;;6.53;;
81006;SDS011;70472;47.592;17.640;2023-10-08T00:58:01;6.50;;;6.50;;
81006;SDS011;70472;47.592;17.640;2023-10-08T00:58:34;6.87;;;6.87;;
81006;SDS011;70472;47.592;17.640;2023-10-08T00:59:07;7.10;;;7.10;;
81006;SDS011;70472;47.592;17.640;2023-10-08T00:59:40;5.87;;;5.87;;
81006;SDS011;70472;47.592;17.640;2023-10-08T01:00:13;6.33;;;6.33;;
81006;SDS011;70472;47.592;17.640;2023-10-08T01:00:45;6.33;;;6.33;;
81006;SDS011;70472;47.592;17.640;2023-10-08T01:01:19;6.93;;;6.93;;
81006;SDS011;70472;47.592;17.640;2023-10-08T01:01:52;5.83;;;5.83;;
81006;SDS011;70472;47.592;17.640;2023-10-08T01:02:26;6.73;;;6.73;;
81006;SDS011;70472;47.592;17.640;2023-10-08T01:03:00;6.50;;;6.50;;
81006;SDS011;70472;47.592;17.640;2023-10-08T01:03:34;6.03;;;6.03;;
81006;SDS011;70472;47.592;17.640;2023-10-08T01:04:06;6.33;;;6.33;;
81006;SDS011;70472;47.592;17.640;2023-10-08T01:04:39;6.07;;;6.03;;
81006;SDS011;70472;47.592;17.640;2023-10-08T01:05:13;6.03;;;5.97;;
81006;SDS011;70472;47.592;17.640;2023-10-08T01:05:47;5.93;;;5.93;;
81006;SDS011;70472;47.592;17.640;2023-10-08T01:06:20;6.10;;;6.10;;
81006;SDS011;70472;47.592;17.640;2023-10-08T01:06:59;6.07;;;6.07;;
81006;SDS011;70472;47.592;17.640;2023-10-08T01:07:34;6.57;;;6.57;;
81006;SDS011;70472;47.592;17.640;2023-10-08T01:08:06;6.40;;;6.40;;
81006;SDS011;70472;47.592;17.640;2023-10-08T01:08:40;6.50;;;6.50;;
81006;SDS011;70472;47.592;17.640;2023-10-08T01:09:13;5.40;;;5.40;;
81006;SDS011;70472;47.592;17.640;2023-10-08T01:09:46;5.63;;;5.63;;
81006;SDS011;70472;47.592;17.640;2023-10-08T01:10:18;5.73;;;5.73;;
81006;SDS011;70472;47.592;17.640;2023-10-08T01:10:50;6.37;;;6.37;;
81006;SDS011;70472;47.592;17.640;2023-10-08T01:11:23;5.57;;;5.57;;
81006;SDS011;70472;47.592;17.640;2023-10-08T01:12:49;5.83;;;5.83;;
81006;SDS011;70472;47.592;17.640;2023-10-08T01:13:22;5.20;;;5.20;;
81006;SDS011;70472;47.592;17.640;2023-10-08T01:13:55;5.83;;;5.83;;
81006;SDS011;70472;47.592;17.640;2023-10-08T01:14:28;5.93;;;5.93;;
81006;SDS011;70472;47.592;17.640;2023-10-08T01:15:01;6.03;;;6.03;;
81006;SDS011;70472;47.592;17.640;2023-10-08T01:15:35;6.10;;;6.10;;
81006;SDS011;70472;47.592;17.640;2023-10-08T01:16:08;5.17;;;5.17;;
81006;SDS011;70472;47.592;17.640;2023-10-08T01:16:40;5.40;;;5.40;;
81006;SDS011;70472;47.592;17.640;2023-10-08T01:17:13;5.47;;;5.47;;
81006;SDS011;70472;47.592;17.640;2023-10-08T01:17:47;6.00;;;6.00;;
81006;SDS011;70472;47.592;17.640;2023-10-08T01:18:20;6.00;;;6.00;;
81006;SDS011;70472;47.592;17.640;2023-10-08T01:18:52;5.87;;;5.87;;
81006;SDS011;70472;47.592;17.640;2023-10-08T01:19:25;5.37;;;5.37;;
81006;SDS011;70472;47.592;17.640;2023-10-08T01:19:58;4.90;;;4.90;;
81006;SDS011;70472;47.592;17.640;2023-10-08T01:20:30;5.30;;;5.30;;
81006;SDS011;70472;47.592;17.640;2023-10-08T01:21:03;5.17;;;5.17;;
81006;SDS011;70472;47.592;17.640;2023-10-08T01:21:36;6.03;;;6.03;;
81006;SDS011;70472;47.592;17.640;2023-10-08T01:22:08;5.40;;;5.40;;
81006;SDS011;70472;47.592;17.640;2023-10-08T01:22:40;5.20;;;5.20;;
81006;SDS011;70472;47.592;17.640;2023-10-08T01:23:13;5.10;;;5.10;;
81006;SDS011;70472;47.592;17.640;2023-10-08T01:23:46;5.47;;;5.47;;
81006;SDS011;70472;47.592;17.640;2023-10-08T01:24:19;5.70;;;5.70;;
81006;SDS011;70472;47.592;17.640;2023-10-08T01:24:51;5.43;;;5.43;;
81006;SDS011;70472;47.592;17.640;2023-10-08T01:25:24;4.70;;;4.70;;
81006;SDS011;70472;47.592;17.640;2023-10-08T01:25:56;5.53;;;5.53;;
81006;SDS011;70472;47.592;17.640;2023-10-08T01:26:29;5.33;;;5.33;;
81006;SDS011;70472;47.592;17.640;2023-10-08T01:27:01;4.87;;;4.87;;
81006;SDS011;70472;47.592;17.640;2023-10-08T01:27:34;5.00;;;5.00;;
81006;SDS011;70472;47.592;17.640;2023-10-08T01:28:06;4.83;;;4.83;;
81006;SDS011;70472;47.592;17.640;2023-10-08T01:28:39;5.10;;;5.10;;
81006;SDS011;70472;47.592;17.640;2023-10-08T01:29:12;5.00;;;5.00;;
81006;SDS011;70472;47.592;17.640;2023-10-08T01:29:47;4.77;;;4.77;;
81006;SDS011;70472;47.592;17.640;2023-10-08T01:30:21;4.70;;;4.70;;
81006;SDS011;70472;47.592;17.640;2023-10-08T01:30:53;4.67;;;4.67;;
81006;SDS011;70472;47.592;17.640;2023-10-08T01:31:28;4.90;;;4.90;;
81006;SDS011;70472;47.592;17.640;2023-10-08T01:32:01;5.17;;;5.17;;
81006;SDS011;70472;47.592;17.640;2023-10-08T01:32:33;4.77;;;4.77;;
81006;SDS011;70472;47.592;17.640;2023-10-08T01:33:06;4.80;;;4.80;;
81006;SDS011;70472;47.592;17.640;2023-10-08T01:33:39;4.60;;;4.60;;
81006;SDS011;70472;47.592;17.640;2023-10-08T01:34:12;4.67;;;4.67;;
81006;SDS011;70472;47.592;17.640;2023-10-08T01:34:44;5.00;;;5.00;;
81006;SDS011;70472;47.592;17.640;2023-10-08T01:35:17;4.63;;;4.63;;
81006;SDS011;70472;47.592;17.640;2023-10-08T01:35:50;4.97;;;4.90;;
81006;SDS011;70472;47.592;17.640;2023-10-08T01:36:24;4.83;;;4.77;;
81006;SDS011;70472;47.592;17.640;2023-10-08T01:36:56;4.97;;;4.97;;
81006;SDS011;70472;47.592;17.640;2023-10-08T01:37:29;4.73;;;4.70;;
81006;SDS011;70472;47.592;17.640;2023-10-08T01:38:01;4.63;;;4.60;;
81006;SDS011;70472;47.592;17.640;2023-10-08T01:38:34;5.03;;;5.00;;
81006;SDS011;70472;47.592;17.640;2023-10-08T01:39:07;4.67;;;4.63;;
81006;SDS011;70472;47.592;17.640;2023-10-08T01:39:39;4.97;;;4.90;;
81006;SDS011;70472;47.592;17.640;2023-10-08T01:40:12;4.57;;;4.57;;
81006;SDS011;70472;47.592;17.640;2023-10-08T01:40:44;5.13;;;5.13;;
81006;SDS011;70472;47.592;17.640;2023-10-08T01:41:17;4.93;;;4.93;;
81006;SDS011;70472;47.592;17.640;2023-10-08T01:41:50;5.00;;;4.97;;
81006;SDS011;70472;47.592;17.640;2023-10-08T01:42:22;4.70;;;4.70;;
81006;SDS011;70472;47.592;17.640;2023-10-08T01:42:56;4.77;;;4.77;;
81006;SDS011;70472;47.592;17.640;2023-10-08T01:43:29;5.20;;;5.20;;
81006;SDS011;70472;47.592;17.640;2023-10-08T01:44:01;4.90;;;4.90;;
81006;SDS011;70472;47.592;17.640;2023-10-08T01:44:34;4.93;;;4.93;;
81006;SDS011;70472;47.592;17.640;2023-10-08T01:45:06;5.00;;;5.00;;
81006;SDS011;70472;47.592;17.640;2023-10-08T01:45:40;5.20;;;5.20;;
81006;SDS011;70472;47.592;17.640;2023-10-08T01:46:14;5.20;;;5.20;;
81006;SDS011;70472;47.592;17.640;2023-10-08T01:46:46;5.23;;;5.23;;
81006;SDS011;70472;47.592;17.640;2023-10-08T01:47:19;4.53;;;4.53;;
81006;SDS011;70472;47.592;17.640;2023-10-08T01:47:52;5.10;;;5.07;;
81006;SDS011;70472;47.592;17.640;2023-10-08T01:48:24;4.70;;;4.63;;
81006;SDS011;70472;47.592;17.640;2023-10-08T01:48:57;4.90;;;4.83;;
81006;SDS011;70472;47.592;17.640;2023-10-08T01:49:29;5.17;;;5.17;;
81006;SDS011;70472;47.592;17.640;2023-10-08T01:50:02;4.87;;;4.83;;
81006;SDS011;70472;47.592;17.640;2023-10-08T01:50:35;5.00;;;5.00;;
81006;SDS011;70472;47.592;17.640;2023-10-08T01:51:11;4.77;;;4.77;;
81006;SDS011;70472;47.592;17.640;2023-10-08T01:51:43;5.03;;;5.03;;
81006;SDS011;70472;47.592;17.640;2023-10-08T01:52:16;4.33;;;4.33;;
81006;SDS011;70472;47.592;17.640;2023-10-08T01:52:48;4.37;;;4.37;;
81006;SDS011;70472;47.592;17.640;2023-10-08T01:53:21;4.37;;;4.37;;
81006;SDS011;70472;47.592;17.640;2023-10-08T01:53:54;4.90;;;4.87;;
81006;SDS011;70472;47.592;17.640;2023-10-08T01:54:27;4.80;;;4.73;;
81006;SDS011;70472;47.592;17.640;2023-10-08T01:54:59;5.37;;;5.30;;
81006;SDS011;70472;47.592;17.640;2023-10-08T01:55:32;5.37;;;5.27;;
81006;SDS011;70472;47.592;17.640;2023-10-08T01:56:05;5.20;;;5.17;;
81006;SDS011;70472;47.592;17.640;2023-10-08T01:56:38;4.30;;;4.27;;
81006;SDS011;70472;47.592;17.640;2023-10-08T01:57:13;5.47;;;5.47;;
81006;SDS011;70472;47.592;17.640;2023-10-08T01:57:46;4.57;;;4.57;;
81006;SDS011;70472;47.592;17.640;2023-10-08T01:58:20;4.43;;;4.40;;
81006;SDS011;70472;47.592;17.640;2023-10-08T01:58:54;4.93;;;4.90;;
81006;SDS011;70472;47.592;17.640;2023-10-08T01:59:26;4.97;;;4.93;;
81006;SDS011;70472;47.592;17.640;2023-10-08T02:00:05;4.80;;;4.80;;
81006;SDS011;70472;47.592;17.640;2023-10-08T02:00:43;4.97;;;4.97;;
81006;SDS011;70472;47.592;17.640;2023-10-08T02:01:21;4.90;;;4.90;;
81006;SDS011;70472;47.592;17.640;2023-10-08T02:01:55;4.70;;;4.70;;
81006;SDS011;70472;47.592;17.640;2023-10-08T02:02:27;4.97;;;4.87;;
81006;SDS011;70472;47.592;17.640;2023-10-08T02:03:00;4.77;;;4.73;;
81006;SDS011;70472;47.592;17.640;2023-10-08T02:03:32;4.73;;;4.73;;
81006;SDS011;70472;47.592;17.640;2023-10-08T02:04:05;4.93;;;4.93;;
81006;SDS011;70472;47.592;17.640;2023-10-08T02:04:38;5.27;;;5.20;;
81006;SDS011;70472;47.592;17.640;2023-10-08T02:05:10;5.77;;;5.70;;
81006;SDS011;70472;47.592;17.640;2023-10-08T02:05:43;5.20;;;5.17;;
81006;SDS011;70472;47.592;17.640;2023-10-08T02:06:17;4.23;;;4.13;;
81006;SDS011;70472;47.592;17.640;2023-10-08T02:06:50;4.90;;;4.90;;
81006;SDS011;70472;47.592;17.640;2023-10-08T02:07:22;5.20;;;5.20;;
81006;SDS011;70472;47.592;17.640;2023-10-08T02:07:55;4.87;;;4.80;;
81006;SDS011;70472;47.592;17.640;2023-10-08T02:08:27;4.63;;;4.57;;
81006;SDS011;70472;47.592;17.640;2023-10-08T02:09:00;5.07;;;5.00;;
81006;SDS011;70472;47.592;17.640;2023-10-08T02:09:36;5.03;;;5.00;;
81006;SDS011;70472;47.592;17.640;2023-10-08T02:10:08;5.13;;;5.10;;
81006;SDS011;70472;47.592;17.640;2023-10-08T02:10:42;5.77;;;5.70;;
81006;SDS011;70472;47.592;17.640;2023-10-08T02:11:15;5.13;;;5.07;;
81006;SDS011;70472;47.592;17.640;2023-10-08T02:11:48;5.37;;;5.30;;
81006;SDS011;70472;47.592;17.640;2023-10-08T02:12:21;5.67;;;5.63;;
81006;SDS011;70472;47.592;17.640;2023-10-08T02:12:54;5.30;;;5.30;;
81006;SDS011;70472;47.592;17.640;2023-10-08T02:13:26;5.20;;;5.13;;
81006;SDS011;70472;47.592;17.640;2023-10-08T02:14:00;5.30;;;5.23;;
81006;SDS011;70472;47.592;17.640;2023-10-08T02:14:32;4.83;;;4.80;;
81006;SDS011;70472;47.592;17.640;2023-10-08T02:15:05;5.27;;;5.23;;
81006;SDS011;70472;47.592;17.640;2023-10-08T02:15:48;5.17;;;5.10;;
81006;SDS011;70472;47.592;17.640;2023-10-08T02:16:22;4.80;;;4.80;;
81006;SDS011;70472;47.592;17.640;2023-10-08T02:16:55;4.27;;;4.27;;
81006;SDS011;70472;47.592;17.640;2023-10-08T02:17:27;4.30;;;4.30;;
81006;SDS011;70472;47.592;17.640;2023-10-08T02:18:00;4.70;;;4.70;;
81006;SDS011;70472;47.592;17.640;2023-10-08T02:18:32;5.13;;;5.10;;
81006;SDS011;70472;47.592;17.640;2023-10-08T02:19:05;4.43;;;4.40;;
81006;SDS011;70472;47.592;17.640;2023-10-08T02:19:37;4.07;;;4.00;;
81006;SDS011;70472;47.592;17.640;2023-10-08T02:20:10;4.53;;;4.50;;
81006;SDS011;70472;47.592;17.640;2023-10-08T02:20:43;4.97;;;4.90;;
81006;SDS011;70472;47.592;17.640;2023-10-08T02:21:16;4.80;;;4.80;;
81006;SDS011;70472;47.592;17.640;2023-10-08T02:21:49;4.83;;;4.83;;
81006;SDS011;70472;47.592;17.640;2023-10-08T02:22:22;4.50;;;4.43;;
81006;SDS011;70472;47.592;17.640;2023-10-08T02:22:54;5.10;;;5.10;;
81006;SDS011;70472;47.592;17.640;2023-10-08T02:23:26;5.10;;;5.07;;
81006;SDS011;70472;47.592;17.640;2023-10-08T02:23:59;4.83;;;4.83;;
81006;SDS011;70472;47.592;17.640;2023-10-08T02:24:31;4.40;;;4.40;;
81006;SDS011;70472;47.592;17.640;2023-10-08T02:25:04;4.30;;;4.30;;
81006;SDS011;70472;47.592;17.640;2023-10-08T02:25:39;5.20;;;5.20;;
81006;SDS011;70472;47.592;17.640;2023-10-08T02:26:12;5.17;;;5.17;;
81006;SDS011;70472;47.592;17.640;2023-10-08T02:26:46;5.17;;;5.13;;
81006;SDS011;70472;47.592;17.640;2023-10-08T02:27:19;5.17;;;5.17;;
81006;SDS011;70472;47.592;17.640;2023-10-08T02:27:51;4.60;;;4.60;;
81006;SDS011;70472;47.592;17.640;2023-10-08T02:28:24;4.83;;;4.80;;
81006;SDS011;70472;47.592;17.640;2023-10-08T02:28:56;5.23;;;5.23;;
81006;SDS011;70472;47.592;17.640;2023-10-08T02:29:30;4.67;;;4.67;;
81006;SDS011;70472;47.592;17.640;2023-10-08T02:30:03;4.53;;;4.53;;
81006;SDS011;70472;47.592;17.640;2023-10-08T02:30:36;4.33;;;4.33;;
81006;SDS011;70472;47.592;17.640;2023-10-08T02:31:08;4.00;;;4.00;;
81006;SDS011;70472;47.592;17.640;2023-10-08T02:31:41;4.57;;;4.53;;
81006;SDS011;70472;47.592;17.640;2023-10-08T02:32:14;4.50;;;4.50;;
81006;SDS011;70472;47.592;17.640;2023-10-08T02:32:46;4.83;;;4.83;;
81006;SDS011;70472;47.592;17.640;2023-10-08T02:33:19;4.97;;;4.97;;
81006;SDS011;70472;47.592;17.640;2023-10-08T02:33:52;5.07;;;5.07;;
81006;SDS011;70472;47.592;17.640;2023-10-08T02:34:24;4.63;;;4.63;;
81006;SDS011;70472;47.592;17.640;2023-10-08T02:34:57;4.80;;;4.80;;
81006;SDS011;70472;47.592;17.640;2023-10-08T02:35:30;4.97;;;4.93;;
81006;SDS011;70472;47.592;17.640;2023-10-08T02:36:03;4.70;;;4.70;;
81006;SDS011;70472;47.592;17.640;2023-10-08T02:36:36;4.43;;;4.43;;
81006;SDS011;70472;47.592;17.640;2023-10-08T02:37:08;4.87;;;4.87;;
81006;SDS011;70472;47.592;17.640;2023-10-08T02:37:41;5.17;;;5.10;;
81006;SDS011;70472;47.592;17.640;2023-10-08T02:38:14;5.47;;;5.47;;
81006;SDS011;70472;47.592;17.640;2023-10-08T02:38:49;4.80;;;4.77;;
81006;SDS011;70472;47.592;17.640;2023-10-08T02:39:22;4.53;;;4.53;;
81006;SDS011;70472;47.592;17.640;2023-10-08T02:39:54;4.43;;;4.43;;
81006;SDS011;70472;47.592;17.640;2023-10-08T02:40:27;4.67;;;4.60;;
81006;SDS011;70472;47.592;17.640;2023-10-08T02:41:00;4.60;;;4.60;;
81006;SDS011;70472;47.592;17.640;2023-10-08T02:41:33;5.27;;;5.27;;
81006;SDS011;70472;47.592;17.640;2023-10-08T02:42:07;4.97;;;4.93;;
81006;SDS011;70472;47.592;17.640;2023-10-08T02:42:40;4.60;;;4.57;;
81006;SDS011;70472;47.592;17.640;2023-10-08T02:43:12;4.33;;;4.33;;
81006;SDS011;70472;47.592;17.640;2023-10-08T02:43:46;4.87;;;4.87;;
81006;SDS011;70472;47.592;17.640;2023-10-08T02:44:18;4.50;;;4.50;;
81006;SDS011;70472;47.592;17.640;2023-10-08T02:44:51;4.00;;;4.00;;
81006;SDS011;70472;47.592;17.640;2023-10-08T02:45:26;4.43;;;4.40;;
81006;SDS011;70472;47.592;17.640;2023-10-08T02:46:00;4.60;;;4.50;;
81006;SDS011;70472;47.592;17.640;2023-10-08T02:46:32;4.53;;;4.53;;
81006;SDS011;70472;47.592;17.640;2023-10-08T02:47:05;4.67;;;4.67;;
81006;SDS011;70472;47.592;17.640;2023-10-08T02:47:38;4.83;;;4.83;;
81006;SDS011;70472;47.592;17.640;2023-10-08T02:48:13;4.87;;;4.87;;
81006;SDS011;70472;47.592;17.640;2023-10-08T02:48:45;4.83;;;4.83;;
81006;SDS011;70472;47.592;17.640;2023-10-08T02:49:18;4.57;;;4.57;;
81006;SDS011;70472;47.592;17.640;2023-10-08T02:49:53;4.27;;;4.27;;
81006;SDS011;70472;47.592;17.640;2023-10-08T02:50:25;4.20;;;4.20;;
81006;SDS011;70472;47.592;17.640;2023-10-08T02:50:57;4.50;;;4.50;;
81006;SDS011;70472;47.592;17.640;2023-10-08T02:51:30;4.90;;;4.90;;
81006;SDS011;70472;47.592;17.640;2023-10-08T02:52:03;4.77;;;4.73;;
81006;SDS011;70472;47.592;17.640;2023-10-08T02:52:35;4.80;;;4.77;;
81006;SDS011;70472;47.592;17.640;2023-10-08T02:53:08;4.47;;;4.47;;
81006;SDS011;70472;47.592;17.640;2023-10-08T02:53:40;4.47;;;4.47;;
81006;SDS011;70472;47.592;17.640;2023-10-08T02:54:14;4.80;;;4.77;;
81006;SDS011;70472;47.592;17.640;2023-10-08T02:54:46;4.70;;;4.60;;
81006;SDS011;70472;47.592;17.640;2023-10-08T02:55:19;4.50;;;4.50;;
81006;SDS011;70472;47.592;17.640;2023-10-08T02:55:51;4.53;;;4.50;;
81006;SDS011;70472;47.592;17.640;2023-10-08T02:56:24;5.20;;;5.13;;
81006;SDS011;70472;47.592;17.640;2023-10-08T02:56:57;4.70;;;4.70;;
81006;SDS011;70472;47.592;17.640;2023-10-08T02:57:30;4.27;;;4.27;;
81006;SDS011;70472;47.592;17.640;2023-10-08T02:58:03;4.33;;;4.27;;
81006;SDS011;70472;47.592;17.640;2023-10-08T02:58:36;4.37;;;4.33;;
81006;SDS011;70472;47.592;17.640;2023-10-08T02:59:08;4.87;;;4.83;;
81006;SDS011;70472;47.592;17.640;2023-10-08T02:59:41;4.77;;;4.70;;
81006;SDS011;70472;47.592;17.640;2023-10-08T03:00:15;4.80;;;4.80;;
81006;SDS011;70472;47.592;17.640;2023-10-08T03:00:49;4.90;;;4.87;;
81006;SDS011;70472;47.592;17.640;2023-10-08T03:01:21;5.23;;;5.23;;
81006;SDS011;70472;47.592;17.640;2023-10-08T03:01:54;5.00;;;5.00;;
81006;SDS011;70472;47.592;17.640;2023-10-08T03:02:27;4.90;;;4.90;;
81006;SDS011;70472;47.592;17.640;2023-10-08T03:03:00;5.00;;;5.00;;
81006;SDS011;70472;47.592;17.640;2023-10-08T03:03:34;5.07;;;5.07;;
81006;SDS011;70472;47.592;17.640;2023-10-08T03:04:08;5.03;;;5.03;;
81006;SDS011;70472;47.592;17.640;2023-10-08T03:04:42;4.67;;;4.67;;
81006;SDS011;70472;47.592;17.640;2023-10-08T03:05:15;4.47;;;4.47;;
81006;SDS011;70472;47.592;17.640;2023-10-08T03:05:49;4.83;;;4.83;;
81006;SDS011;70472;47.592;17.640;2023-10-08T03:06:24;4.63;;;4.63;;
81006;SDS011;70472;47.592;17.640;2023-10-08T03:06:56;4.87;;;4.87;;
81006;SDS011;70472;47.592;17.640;2023-10-08T03:07:29;4.87;;;4.87;;
81006;SDS011;70472;47.592;17.640;2023-10-08T03:08:02;4.80;;;4.80;;
81006;SDS011;70472;47.592;17.640;2023-10-08T03:08:35;4.77;;;4.77;;
81006;SDS011;70472;47.592;17.640;2023-10-08T03:09:07;5.23;;;5.23;;
81006;SDS011;70472;47.592;17.640;2023-10-08T03:09:40;5.07;;;5.07;;
81006;SDS011;70472;47.592;17.640;2023-10-08T03:10:13;4.80;;;4.80;;
81006;SDS011;70472;47.592;17.640;2023-10-08T03:10:45;5.03;;;5.03;;
81006;SDS011;70472;47.592;17.640;2023-10-08T03:11:22;4.97;;;4.97;;
81006;SDS011;70472;47.592;17.640;2023-10-08T03:11:55;5.03;;;5.03;;
81006;SDS011;70472;47.592;17.640;2023-10-08T03:12:29;4.67;;;4.67;;
81006;SDS011;70472;47.592;17.640;2023-10-08T03:13:02;4.13;;;4.13;;
81006;SDS011;70472;47.592;17.640;2023-10-08T03:13:35;4.60;;;4.60;;
81006;SDS011;70472;47.592;17.640;2023-10-08T03:14:08;4.30;;;4.30;;
81006;SDS011;70472;47.592;17.640;2023-10-08T03:14:40;4.33;;;4.33;;
81006;SDS011;70472;47.592;17.640;2023-10-08T03:15:14;5.20;;;5.20;;
81006;SDS011;70472;47.592;17.640;2023-10-08T03:15:47;4.30;;;4.30;;
81006;SDS011;70472;47.592;17.640;2023-10-08T03:16:20;4.70;;;4.70;;
81006;SDS011;70472;47.592;17.640;2023-10-08T03:16:55;5.07;;;5.07;;
81006;SDS011;70472;47.592;17.640;2023-10-08T03:17:28;5.03;;;5.03;;